ROMMA est une association bénévole à but non lucratif. Votre soutien est indispensable : ADHERER à ROMMA ou FAIRE un DON

Taninges - (74, Haute-Savoie)

Vallée du Giffre (635 m)   Longitude: 06° 35' 38" E   Latitude: 46° 06' 21" N Station romma n°98
 

Détail journalier du     <<     >>

Température Precipitation Humidité Pression Vent Dir Rafale Dir. rafale Ensol.
Heure (°C) (mm) (%) (hPa) (km/h) (km/h) (min)
01:00 10.609610061SSO6SSO0
02:00 9.20.297100603S0
03:00 10.10971006000
04:00 9.9097100705ENE0
05:00 10.10971007000
06:00 9.909710071ESE6ESE0
07:00 9.409710072ENE10ESE0
08:00 8.409710072SE6E0
09:00 8.609810071O6O0
10:00 9.409810072SSO6ENE0
11:00 11.509810071O6OSO50
12:00 13.209410064O11O25
13:00 14.108910066OSO21OSO60
14:00 13.509010069OSO23O10
15:00 15.108510046O23OSO15
16:00 16.808010046O21OSO55
17:00 15.708410044ONO19OSO10
18:00 14.708810053O10O0
19:00 13.609110063O11OSO0
20:00 12.209410073N15OSO0
21:00 12.709510084O15OSO0
22:00 13.109310095O19OSO0
23:00 14.108710094NO16ONO0
minuit 13.808710092NE11ONO0

Graphique du 20-10-2019

 

Serveur OMMA